Time;durP1;ratioP1;P1;durP2;ratioP2;P2;SDS_P1;SDS_P2;PMS_P1;PMS_P2;Temp;Humidity;BMP_temperature;BMP_pressure;BME280_temperature;BME280_humidity;BME280_pressure;Samples;Min_cycle;Max_cycle;Signal;HPM_P1;HPM_P2
2022/06/28 05:00:43;;;;;;;2.60;2.17;;;19.50;97.20;;;;;;1714106;28;20178;-71
2022/06/28 05:01:33;;;;;;;2.55;2.35;;;19.50;97.20;;;;;;1714058;28;20209;-71
2022/06/28 05:02:25;;;;;;;2.83;2.43;;;19.50;97.20;;;;;;1713997;28;20353;-71
2022/06/28 05:03:16;;;;;;;2.65;2.45;;;19.50;97.20;;;;;;1714058;28;20208;-70
2022/06/28 05:04:08;;;;;;;3.80;2.30;;;19.50;97.20;;;;;;1714034;28;20285;-71
2022/06/28 05:04:59;;;;;;;2.45;2.10;;;19.50;97.20;;;;;;1709893;28;20213;-70
2022/06/28 05:05:50;;;;;;;2.50;2.30;;;19.50;97.20;;;;;;1707310;28;20304;-71
2022/06/28 05:06:41;;;;;;;4.32;2.67;;;19.60;97.20;;;;;;1707205;28;20209;-71
2022/06/28 05:07:33;;;;;;;4.10;2.70;;;19.60;97.20;;;;;;1709000;28;20230;-70
2022/06/28 05:08:24;;;;;;;3.13;2.80;;;19.60;97.20;;;;;;1713905;28;20445;-71
2022/06/28 05:09:16;;;;;;;3.20;2.90;;;19.60;97.20;;;;;;1713979;28;20685;-71
2022/06/28 05:10:08;;;;;;;4.32;2.95;;;19.60;97.20;;;;;;1713996;28;20456;-71
2022/06/28 05:11:00;;;;;;;3.00;2.70;;;19.60;97.20;;;;;;1713988;28;20309;-70
2022/06/28 05:11:50;;;;;;;3.35;2.60;;;19.60;97.20;;;;;;1713972;28;20217;-70
2022/06/28 05:12:42;;;;;;;3.40;3.10;;;19.60;97.20;;;;;;1714387;28;20231;-71
2022/06/28 05:13:33;;;;;;;4.53;3.17;;;19.60;97.20;;;;;;1707859;29;20211;-70
2022/06/28 05:14:26;;;;;;;4.30;2.90;;;19.60;97.20;;;;;;1707497;29;20198;-70
2022/06/28 05:15:17;;;;;;;4.63;3.15;;;19.60;97.20;;;;;;1707333;29;21028;-70
2022/06/28 05:16:10;;;;;;;4.33;3.30;;;19.60;97.20;;;;;;1707301;29;20690;-70
2022/06/28 05:17:01;;;;;;;3.38;3.15;;;19.70;97.20;;;;;;1707130;29;20580;-70
2022/06/28 05:17:53;;;;;;;3.28;2.97;;;19.70;97.20;;;;;;1707299;29;20198;-70
2022/06/28 05:18:44;;;;;;;3.30;3.00;;;19.70;97.20;;;;;;1707281;29;20206;-70
2022/06/28 05:19:36;;;;;;;3.58;3.28;;;19.70;97.20;;;;;;1707424;29;20240;-70
2022/06/28 05:20:26;;;;;;;5.07;3.58;;;19.70;97.20;;;;;;1707296;29;20206;-70
2022/06/28 05:21:18;;;;;;;3.60;3.33;;;19.70;97.20;;;;;;1707467;29;20226;-70
2022/06/28 05:22:09;;;;;;;3.25;2.97;;;19.70;97.20;;;;;;1707287;29;20198;-70
2022/06/28 05:23:01;;;;;;;5.40;3.67;;;19.70;97.20;;;;;;1707340;29;20210;-70
2022/06/28 05:23:52;;;;;;;3.50;3.20;;;19.60;97.20;;;;;;1707308;29;20477;-70
2022/06/28 05:24:44;;;;;;;4.32;4.03;;;19.60;97.20;;;;;;1707345;29;20213;-71
2022/06/28 05:25:35;;;;;;;4.00;3.50;;;19.70;97.20;;;;;;1712670;28;20242;-71
2022/06/28 05:26:26;;;;;;;8.47;3.63;;;19.70;97.20;;;;;;1713895;28;20733;-71
2022/06/28 05:27:17;;;;;;;3.30;3.00;;;19.70;97.20;;;;;;1713707;28;20657;-70
2022/06/28 05:28:09;;;;;;;4.03;3.60;;;19.70;97.20;;;;;;1712284;28;20643;-70
2022/06/28 05:29:00;;;;;;;3.88;3.60;;;19.70;97.20;;;;;;1707343;29;20206;-70
2022/06/28 05:29:52;;;;;;;4.40;3.30;;;19.70;97.20;;;;;;1706027;28;20237;-70
2022/06/28 05:30:44;;;;;;;4.32;3.92;;;19.70;97.20;;;;;;1711533;28;20234;-70
2022/06/28 05:31:38;;;;;;;8.23;3.80;;;19.70;97.20;;;;;;1713649;28;20205;-70
2022/06/28 05:32:29;;;;;;;4.82;4.43;;;19.70;97.20;;;;;;1712765;28;20708;-70
2022/06/28 05:33:20;;;;;;;5.18;4.40;;;19.80;97.20;;;;;;1713786;28;20202;-70
2022/06/28 05:34:12;;;;;;;4.50;4.10;;;19.80;97.20;;;;;;1717296;28;20205;-70
2022/06/28 05:35:04;;;;;;;5.35;4.90;;;19.80;97.20;;;;;;1716205;28;20241;-70
2022/06/28 05:35:55;;;;;;;5.05;4.55;;;19.80;97.20;;;;;;1713742;28;20221;-71
2022/06/28 05:36:46;;;;;;;5.00;4.60;;;19.80;97.20;;;;;;1713604;28;20236;-70
2022/06/28 05:37:37;;;;;;;5.30;4.80;;;19.80;97.20;;;;;;1713682;28;20209;-70
2022/06/28 05:38:29;;;;;;;8.97;4.80;;;19.80;97.20;;;;;;1712937;28;20294;-70
2022/06/28 05:39:21;;;;;;;5.60;5.10;;;19.80;97.20;;;;;;1713832;28;20202;-70
2022/06/28 05:40:13;;;;;;;5.93;5.53;;;19.80;97.20;;;;;;1709548;28;20596;-71
2022/06/28 05:41:04;;;;;;;8.00;5.88;;;19.80;97.20;;;;;;1707169;28;20206;-71
2022/06/28 05:41:55;;;;;;;6.03;5.47;;;19.90;97.20;;;;;;1707210;29;20693;-70
2022/06/28 05:42:46;;;;;;;6.57;5.97;;;19.90;97.20;;;;;;1707192;29;20207;-70
2022/06/28 05:43:38;;;;;;;7.73;7.03;;;19.90;97.20;;;;;;1707205;29;20286;-71
2022/06/28 05:44:29;;;;;;;7.10;6.50;;;19.90;97.20;;;;;;1707107;29;20213;-70
2022/06/28 05:45:20;;;;;;;6.60;6.00;;;19.90;97.20;;;;;;1707095;29;20285;-71
2022/06/28 05:46:11;;;;;;;7.38;6.68;;;19.90;97.20;;;;;;1707105;29;20207;-70
2022/06/28 05:47:05;;;;;;;7.30;5.60;;;19.90;97.20;;;;;;1706956;29;20293;-70
2022/06/28 05:47:56;;;;;;;7.05;6.45;;;19.90;97.20;;;;;;1708144;28;20203;-70
2022/06/28 05:48:47;;;;;;;7.15;6.65;;;19.90;97.20;;;;;;1707021;28;20206;-70
2022/06/28 05:49:39;;;;;;;7.93;6.53;;;19.90;97.20;;;;;;1707161;29;20261;-70
2022/06/28 05:50:30;;;;;;;7.00;5.68;;;19.90;97.20;;;;;;1715522;28;20205;-70
2022/06/28 05:51:22;;;;;;;5.87;5.47;;;19.90;97.20;;;;;;1720529;28;20297;-70
2022/06/28 05:52:13;;;;;;;6.88;6.30;;;20.00;97.20;;;;;;1720386;28;20208;-70
2022/06/28 05:53:05;;;;;;;7.22;6.53;;;20.00;97.20;;;;;;1720443;28;20255;-70
2022/06/28 05:53:56;;;;;;;6.70;6.20;;;20.00;97.20;;;;;;1720419;28;20201;-70
2022/06/28 05:54:47;;;;;;;8.45;6.57;;;20.00;97.20;;;;;;1720597;28;20486;-70
2022/06/28 05:55:38;;;;;;;7.00;6.50;;;20.00;97.20;;;;;;1720473;28;20232;-70
2022/06/28 05:56:32;;;;;;;7.07;6.47;;;20.00;97.20;;;;;;1720386;28;20237;-71
2022/06/28 05:57:22;;;;;;;7.45;6.95;;;20.00;97.20;;;;;;1720647;28;20648;-70
2022/06/28 05:58:14;;;;;;;7.63;6.90;;;20.00;97.20;;;;;;1712837;28;20613;-70
2022/06/28 05:59:05;;;;;;;7.90;7.30;;;20.10;97.20;;;;;;1707103;29;20202;-70
2022/06/28 05:59:57;;;;;;;8.65;7.90;;;20.10;97.20;;;;;;1707016;28;20289;-70
2022/06/28 06:00:48;;;;;;;8.23;7.53;;;20.10;97.20;;;;;;1707132;29;20727;-70
2022/06/28 06:01:39;;;;;;;11.20;7.60;;;20.10;97.20;;;;;;1707155;29;20583;-70
2022/06/28 06:02:31;;;;;;;7.50;6.90;;;20.10;97.20;;;;;;1707080;29;20438;-70
2022/06/28 06:03:23;;;;;;;7.70;7.00;;;20.10;97.20;;;;;;1707134;29;20234;-70
2022/06/28 06:04:14;;;;;;;7.85;7.25;;;20.10;97.20;;;;;;1707168;29;20210;-71
2022/06/28 06:05:06;;;;;;;7.90;7.30;;;20.10;97.20;;;;;;1707098;29;20384;-70
2022/06/28 06:05:57;;;;;;;8.95;8.05;;;20.10;97.20;;;;;;1706973;28;20482;-71
2022/06/28 06:06:49;;;;;;;9.03;7.37;;;20.10;97.20;;;;;;1708016;29;20238;-71
2022/06/28 06:07:40;;;;;;;8.50;7.07;;;20.10;97.20;;;;;;1708373;29;20203;-70
2022/06/28 06:08:31;;;;;;;8.27;7.57;;;20.20;97.20;;;;;;1714010;28;20201;-70
2022/06/28 06:09:22;;;;;;;8.27;7.57;;;20.20;97.20;;;;;;1715017;28;20581;-70
2022/06/28 06:10:14;;;;;;;7.90;7.30;;;20.20;97.20;;;;;;1714978;28;20277;-71
2022/06/28 06:11:07;;;;;;;7.70;6.95;;;20.20;97.20;;;;;;1715025;28;20216;-70
2022/06/28 06:11:59;;;;;;;7.63;7.03;;;20.20;97.20;;;;;;1715035;28;20202;-70
2022/06/28 06:12:49;;;;;;;8.07;7.25;;;20.20;97.20;;;;;;1714881;28;20226;-70
2022/06/28 06:13:41;;;;;;;7.10;6.60;;;20.20;97.20;;;;;;1714993;28;20293;-70
2022/06/28 06:14:32;;;;;;;7.68;7.18;;;20.20;97.20;;;;;;1714898;28;20224;-70
2022/06/28 06:15:23;;;;;;;7.10;6.50;;;20.20;97.20;;;;;;1714868;28;20289;-70
2022/06/28 06:16:14;;;;;;;8.23;7.63;;;20.20;97.20;;;;;;1714937;28;20206;-70
2022/06/28 06:17:06;;;;;;;7.87;7.27;;;20.20;97.20;;;;;;1714775;28;20337;-70
2022/06/28 06:17:58;;;;;;;7.60;7.00;;;20.30;97.20;;;;;;1713341;28;20816;-70
2022/06/28 06:18:50;;;;;;;7.68;6.93;;;20.20;97.20;;;;;;1708281;29;20689;-70
2022/06/28 06:19:42;;;;;;;7.88;7.28;;;20.20;97.20;;;;;;1708363;29;20670;-70
2022/06/28 06:20:33;;;;;;;7.75;7.15;;;20.30;97.20;;;;;;1708272;29;20213;-70
2022/06/28 06:21:24;;;;;;;8.13;7.45;;;20.30;97.20;;;;;;1708275;29;20214;-71
2022/06/28 06:22:16;;;;;;;8.70;8.00;;;20.30;97.20;;;;;;1708325;29;20222;-70
2022/06/28 06:23:07;;;;;;;8.05;7.28;;;20.30;97.20;;;;;;1708342;29;20213;-70
2022/06/28 06:23:59;;;;;;;7.90;7.10;;;20.30;97.20;;;;;;1708245;29;20254;-70
2022/06/28 06:24:49;;;;;;;7.55;6.97;;;20.30;97.20;;;;;;1709783;28;20431;-70
2022/06/28 06:25:41;;;;;;;8.23;7.53;;;20.30;97.20;;;;;;1721691;28;20299;-70
2022/06/28 06:26:33;;;;;;;7.53;7.03;;;20.30;97.20;;;;;;1721306;28;20578;-70
2022/06/28 06:27:24;;;;;;;6.90;6.30;;;20.30;97.20;;;;;;1721626;28;20205;-70
2022/06/28 06:28:15;;;;;;;7.85;7.20;;;20.30;97.20;;;;;;1717049;28;20240;-70
2022/06/28 06:29:07;;;;;;;7.80;7.10;;;20.30;97.20;;;;;;1714914;28;20288;-70
2022/06/28 06:29:58;;;;;;;9.00;8.20;;;20.30;97.20;;;;;;1714848;28;20248;-70
2022/06/28 06:30:50;;;;;;;8.17;7.50;;;20.30;97.20;;;;;;1714872;28;20210;-70
2022/06/28 06:31:40;;;;;;;8.35;7.70;;;20.40;97.20;;;;;;1714925;28;20209;-70
2022/06/28 06:32:32;;;;;;;8.17;7.40;;;20.40;97.20;;;;;;1714723;28;20289;-70
2022/06/28 06:33:24;;;;;;;8.25;7.55;;;20.40;97.20;;;;;;1714815;28;20210;-70
2022/06/28 06:34:16;;;;;;;8.05;7.45;;;20.40;97.20;;;;;;1714875;28;20670;-70
2022/06/28 06:35:08;;;;;;;10.00;7.57;;;20.40;97.20;;;;;;1714850;28;20665;-70
2022/06/28 06:36:00;;;;;;;8.20;7.60;;;20.40;97.20;;;;;;1714760;28;20221;-71
2022/06/28 06:36:51;;;;;;;7.93;7.22;;;20.40;97.20;;;;;;1714527;28;20220;-70
2022/06/28 06:37:43;;;;;;;7.97;7.37;;;20.40;97.20;;;;;;1714848;28;20298;-70
2022/06/28 06:38:34;;;;;;;8.68;7.97;;;20.40;97.20;;;;;;1708823;28;20202;-70
2022/06/28 06:39:25;;;;;;;8.38;7.78;;;20.40;97.20;;;;;;1708244;29;20740;-70
2022/06/28 06:40:16;;;;;;;8.75;7.95;;;20.40;97.20;;;;;;1708103;29;20666;-70
2022/06/28 06:41:08;;;;;;;8.03;7.13;;;20.40;97.20;;;;;;1708196;29;20631;-70
2022/06/28 06:41:59;;;;;;;7.18;6.68;;;20.40;97.20;;;;;;1708170;29;20445;-70
2022/06/28 06:42:51;;;;;;;6.80;6.30;;;20.40;97.20;;;;;;1708165;29;20452;-70
2022/06/28 06:43:41;;;;;;;7.60;7.00;;;20.40;97.20;;;;;;1708223;29;20217;-70
2022/06/28 06:44:33;;;;;;;7.63;7.00;;;20.50;97.20;;;;;;1708161;29;20233;-70
2022/06/28 06:45:24;;;;;;;7.43;6.72;;;20.50;97.20;;;;;;1708145;29;20913;-70
2022/06/28 06:46:16;;;;;;;9.70;7.50;;;20.50;97.20;;;;;;1708096;29;20328;-70
2022/06/28 06:47:07;;;;;;;8.18;7.47;;;20.50;97.20;;;;;;1707838;29;20205;-70
2022/06/28 06:47:59;;;;;;;8.53;7.80;;;20.50;97.20;;;;;;1708473;28;20206;-70
2022/06/28 06:48:51;;;;;;;7.60;7.10;;;20.50;97.20;;;;;;1714782;28;20205;-70
2022/06/28 06:49:43;;;;;;;7.82;7.03;;;20.50;97.20;;;;;;1714811;28;20553;-70
2022/06/28 06:50:33;;;;;;;7.28;6.70;;;20.50;97.20;;;;;;1714770;28;20571;-70
2022/06/28 06:51:25;;;;;;;6.73;6.23;;;20.50;97.20;;;;;;1714745;28;20285;-70
2022/06/28 06:52:16;;;;;;;7.80;7.10;;;20.50;97.20;;;;;;1714752;28;20202;-70
2022/06/28 06:53:09;;;;;;;7.83;7.07;;;20.50;97.20;;;;;;1714667;28;20229;-70
2022/06/28 06:54:00;;;;;;;8.02;6.88;;;20.50;97.20;;;;;;1714706;28;20823;-70
2022/06/28 06:54:52;;;;;;;7.60;6.90;;;20.50;97.20;;;;;;1714673;28;20590;-70
2022/06/28 06:55:42;;;;;;;8.57;7.97;;;20.50;97.20;;;;;;1714713;28;20476;-70
2022/06/28 06:56:34;;;;;;;8.20;7.40;;;20.50;97.20;;;;;;1714393;28;20204;-70
2022/06/28 06:57:25;;;;;;;7.93;7.20;;;20.50;97.20;;;;;;1714682;28;20452;-70
2022/06/28 06:58:17;;;;;;;8.03;7.23;;;20.50;97.20;;;;;;1711604;28;20290;-70
2022/06/28 06:59:08;;;;;;;8.65;7.50;;;20.50;97.20;;;;;;1708066;29;20213;-70
2022/06/28 06:59:59;;;;;;;8.55;7.85;;;20.50;97.20;;;;;;1708051;29;20198;-70
2022/06/28 07:00:50;;;;;;;8.35;7.55;;;20.50;97.20;;;;;;1708022;29;20226;-69
2022/06/28 07:01:42;;;;;;;8.10;7.30;;;20.50;97.20;;;;;;1708130;29;20281;-69
2022/06/28 07:02:39;;;;;;;8.70;7.78;;;20.50;97.20;;;;;;1708023;29;20206;-69
2022/06/28 07:03:31;;;;;;;8.65;7.95;;;20.50;97.20;;;;;;1708088;29;20198;-69
2022/06/28 07:04:23;;;;;;;7.57;7.00;;;20.40;97.20;;;;;;1708061;29;20210;-69
2022/06/28 07:05:15;;;;;;;8.77;8.00;;;20.40;97.20;;;;;;1708021;29;20209;-69
2022/06/28 07:06:06;;;;;;;8.80;8.00;;;20.40;97.20;;;;;;1709256;28;20210;-69
2022/06/28 07:06:57;;;;;;;8.70;8.00;;;20.40;97.20;;;;;;1714445;28;20437;-69
2022/06/28 07:07:48;;;;;;;9.95;7.53;;;20.40;97.20;;;;;;1714545;28;20680;-69
2022/06/28 07:08:40;;;;;;;9.20;8.30;;;20.40;97.20;;;;;;1714656;28;20753;-69
2022/06/28 07:09:31;;;;;;;9.05;8.35;;;20.40;97.20;;;;;;1713829;28;20206;-69
2022/06/28 07:10:23;;;;;;;8.70;8.00;;;20.40;97.20;;;;;;1710785;28;20289;-68
2022/06/28 07:11:14;;;;;;;9.48;8.55;;;20.30;97.20;;;;;;1714418;28;20225;-68
2022/06/28 07:12:06;;;;;;;8.82;8.20;;;20.30;97.20;;;;;;1714517;28;20673;-70
2022/06/28 07:12:58;;;;;;;9.13;8.32;;;20.30;97.20;;;;;;1714556;28;20198;-69
2022/06/28 07:13:49;;;;;;;11.48;8.10;;;20.30;97.20;;;;;;1714570;28;20214;-69
2022/06/28 07:14:40;;;;;;;9.67;8.77;;;20.30;97.20;;;;;;1714560;28;20285;-69
2022/06/28 07:15:31;;;;;;;9.02;8.32;;;20.30;97.20;;;;;;1713651;28;20225;-68
2022/06/28 07:16:24;;;;;;;9.60;8.80;;;20.30;97.20;;;;;;1718089;28;20280;-68
2022/06/28 07:17:14;;;;;;;9.43;8.73;;;20.30;97.20;;;;;;1720993;28;20444;-68
2022/06/28 07:18:07;;;;;;;8.90;8.10;;;20.30;97.20;;;;;;1720188;28;20288;-69
2022/06/28 07:18:58;;;;;;;9.57;8.77;;;20.30;97.20;;;;;;1721330;28;20212;-68
2022/06/28 07:19:51;;;;;;;9.03;8.30;;;20.30;97.20;;;;;;1721286;28;20284;-68
2022/06/28 07:20:41;;;;;;;9.52;8.73;;;20.30;97.20;;;;;;1721330;28;20202;-69
2022/06/28 07:21:33;;;;;;;9.07;8.37;;;20.30;97.20;;;;;;1721258;28;20803;-69
2022/06/28 07:22:24;;;;;;;9.15;8.48;;;20.30;97.20;;;;;;1721268;28;20672;-68
2022/06/28 07:23:15;;;;;;;9.07;8.37;;;20.30;97.20;;;;;;1719503;28;20545;-69
2022/06/28 07:24:08;;;;;;;9.27;8.55;;;20.30;97.20;;;;;;1710123;28;20581;-69
2022/06/28 07:24:59;;;;;;;9.05;8.27;;;20.30;97.20;;;;;;1714303;28;20628;-69
2022/06/28 07:25:51;;;;;;;9.75;8.95;;;20.30;97.20;;;;;;1713507;28;20214;-69
2022/06/28 07:26:42;;;;;;;9.57;8.75;;;20.30;97.20;;;;;;1713695;28;20197;-69
2022/06/28 07:27:33;;;;;;;9.65;8.75;;;20.30;97.20;;;;;;1711294;28;20199;-68
2022/06/28 07:28:25;;;;;;;8.80;8.20;;;20.30;97.20;;;;;;1710703;28;20280;-69
2022/06/28 07:29:16;;;;;;;10.27;9.38;;;20.30;97.20;;;;;;1714467;28;20213;-69
2022/06/28 07:30:08;;;;;;;9.67;8.70;;;20.30;97.20;;;;;;1714455;28;20288;-69
2022/06/28 07:31:00;;;;;;;9.50;8.70;;;20.30;97.20;;;;;;1714498;28;20206;-69
2022/06/28 07:31:51;;;;;;;9.68;8.98;;;20.30;97.20;;;;;;1714435;28;20205;-68
2022/06/28 07:32:43;;;;;;;8.98;8.27;;;20.30;97.20;;;;;;1714510;28;20197;-68
2022/06/28 07:33:34;;;;;;;9.45;8.55;;;20.30;97.20;;;;;;1714364;28;20249;-69
2022/06/28 07:34:26;;;;;;;10.05;9.20;;;20.30;97.20;;;;;;1714463;28;20268;-69
2022/06/28 07:35:18;;;;;;;9.85;9.10;;;20.40;97.20;;;;;;1714337;28;20202;-69
2022/06/28 07:36:10;;;;;;;9.10;8.30;;;20.40;97.20;;;;;;1714114;28;20201;-69
2022/06/28 07:37:00;;;;;;;9.68;8.90;;;20.40;97.20;;;;;;1714184;28;20202;-69
2022/06/28 07:37:53;;;;;;;9.00;8.30;;;20.40;97.20;;;;;;1714354;28;20280;-69
2022/06/28 07:38:43;;;;;;;9.40;8.60;;;20.50;97.20;;;;;;1713717;28;20206;-68
2022/06/28 07:39:35;;;;;;;9.60;8.77;;;20.50;97.20;;;;;;1712191;28;20665;-68
2022/06/28 07:40:26;;;;;;;9.70;8.93;;;20.50;97.20;;;;;;1707867;29;20207;-68
2022/06/28 07:41:18;;;;;;;9.80;9.00;;;20.50;97.20;;;;;;1707754;29;20738;-68
2022/06/28 07:42:09;;;;;;;11.00;10.02;;;20.60;97.20;;;;;;1707784;29;20206;-68
2022/06/28 07:43:01;;;;;;;9.53;8.80;;;20.60;97.20;;;;;;1707793;29;20289;-69
2022/06/28 07:43:52;;;;;;;9.30;8.57;;;20.60;97.20;;;;;;1707715;29;20453;-68
2022/06/28 07:44:44;;;;;;;10.05;9.15;;;20.70;97.20;;;;;;1707855;29;20701;-68
2022/06/28 07:45:36;;;;;;;9.25;8.45;;;20.70;97.20;;;;;;1707627;29;20369;-69
2022/06/28 07:46:28;;;;;;;9.50;8.75;;;20.70;97.20;;;;;;1707678;29;20203;-69
2022/06/28 07:47:19;;;;;;;9.60;8.70;;;20.80;97.20;;;;;;1707574;29;20206;-68
2022/06/28 07:48:11;;;;;;;9.53;8.77;;;20.80;97.20;;;;;;1708652;28;20206;-69
2022/06/28 07:49:02;;;;;;;10.25;9.45;;;20.80;97.20;;;;;;1714456;28;20209;-68
2022/06/28 07:53:23;;;;;;;9.50;8.70;;;20.90;97.20;;;;;;1714428;28;20204;-69
2022/06/28 07:54:14;;;;;;;9.20;8.50;;;21.00;97.20;;;;;;1714352;28;20245;-69
2022/06/28 07:55:07;;;;;;;9.30;8.50;;;21.00;97.20;;;;;;1714434;28;20289;-69
2022/06/28 07:55:59;;;;;;;9.73;9.02;;;21.00;97.20;;;;;;1714163;28;20244;-69
2022/06/28 07:56:50;;;;;;;9.07;8.38;;;21.10;97.20;;;;;;1713948;28;20217;-69
2022/06/28 07:57:42;;;;;;;9.63;8.80;;;21.10;97.20;;;;;;1714304;28;20201;-69
2022/06/28 07:58:33;;;;;;;9.50;8.70;;;21.20;97.20;;;;;;1709947;28;20199;-69
2022/06/28 07:59:24;;;;;;;9.77;8.98;;;21.20;97.20;;;;;;1707720;28;20670;-69
2022/06/28 08:00:19;;;;;;;9.30;8.50;;;21.30;97.20;;;;;;1707676;29;20670;-69
2022/06/28 08:01:11;;;;;;;9.55;8.85;;;21.30;97.20;;;;;;1707683;29;20199;-69
2022/06/28 08:02:02;;;;;;;9.75;8.95;;;21.40;97.20;;;;;;1707752;29;20202;-69
2022/06/28 08:02:54;;;;;;;11.33;10.23;;;21.40;97.20;;;;;;1707613;29;20234;-69
2022/06/28 08:03:45;;;;;;;10.95;9.95;;;21.40;97.20;;;;;;1707645;29;20469;-69
2022/06/28 08:04:36;;;;;;;10.85;9.95;;;21.50;97.20;;;;;;1707606;29;20198;-69
2022/06/28 08:05:27;;;;;;;12.23;11.13;;;21.50;97.20;;;;;;1707594;29;20253;-69
2022/06/28 08:06:21;;;;;;;12.65;11.65;;;21.60;97.20;;;;;;1707684;29;20198;-69
2022/06/28 08:07:12;;;;;;;11.55;10.60;;;21.60;97.20;;;;;;1707361;29;20207;-69
2022/06/28 08:08:04;;;;;;;11.20;9.77;;;21.70;97.20;;;;;;1707790;28;20226;-69
2022/06/28 08:08:55;;;;;;;11.65;10.70;;;21.70;97.20;;;;;;1714333;28;20449;-69
2022/06/28 08:09:46;;;;;;;11.73;10.70;;;21.70;97.20;;;;;;1714292;28;20680;-69
2022/06/28 08:10:37;;;;;;;11.90;10.80;;;21.80;97.20;;;;;;1714280;28;20213;-69
2022/06/28 08:11:29;;;;;;;11.70;10.60;;;21.80;97.20;;;;;;1714296;28;20212;-69
2022/06/28 08:12:19;;;;;;;14.25;12.95;;;21.90;97.20;;;;;;1714334;28;20210;-69
2022/06/28 08:13:13;;;;;;;14.60;13.30;;;21.90;97.20;;;;;;1714213;28;20736;-69
2022/06/28 08:14:04;;;;;;;19.05;17.25;;;21.90;97.20;;;;;;1714293;28;21232;-70
2022/06/28 08:14:56;;;;;;;15.83;14.50;;;22.00;97.20;;;;;;1714325;28;20202;-69
2022/06/28 08:15:47;;;;;;;11.63;10.52;;;22.00;97.20;;;;;;1714072;28;20238;-69
2022/06/28 08:16:38;;;;;;;12.60;11.10;;;22.00;97.20;;;;;;1713981;28;20280;-69
2022/06/28 08:17:29;;;;;;;11.20;10.20;;;22.00;97.20;;;;;;1713982;28;20442;-69
2022/06/28 08:18:21;;;;;;;10.65;9.70;;;22.10;97.20;;;;;;1713327;28;20198;-69
2022/06/28 08:19:15;;;;;;;12.52;11.25;;;22.10;97.20;;;;;;1713946;28;20206;-69
2022/06/28 08:20:07;;;;;;;10.55;9.63;;;22.10;97.20;;;;;;1714125;28;20194;-69
2022/06/28 08:20:58;;;;;;;9.70;8.90;;;22.10;97.20;;;;;;1714007;28;20201;-69
2022/06/28 08:21:51;;;;;;;10.63;9.73;;;22.10;97.20;;;;;;1714034;28;20319;-68
2022/06/28 08:22:43;;;;;;;10.80;9.90;;;22.10;97.20;;;;;;1711532;28;20208;-69
2022/06/28 08:23:34;;;;;;;10.07;9.27;;;22.10;97.20;;;;;;1713944;28;20672;-69
2022/06/28 08:24:26;;;;;;;9.43;8.53;;;22.10;97.20;;;;;;1714066;28;20651;-69
2022/06/28 08:25:17;;;;;;;16.50;14.90;;;22.10;97.20;;;;;;1714040;28;20449;-69
2022/06/28 08:26:09;;;;;;;15.23;13.83;;;22.10;97.20;;;;;;1714006;28;20281;-69
2022/06/28 08:26:59;;;;;;;11.75;10.82;;;22.10;97.20;;;;;;1713581;28;20206;-69
2022/06/28 08:27:51;;;;;;;12.03;11.03;;;22.20;97.20;;;;;;1713826;28;20295;-69
2022/06/28 08:28:42;;;;;;;10.90;9.95;;;22.10;97.20;;;;;;1708980;28;20217;-69
2022/06/28 08:29:34;;;;;;;12.20;11.00;;;22.20;97.20;;;;;;1713498;28;20687;-69
2022/06/28 08:30:25;;;;;;;14.18;12.88;;;22.20;97.20;;;;;;1711286;28;20202;-69
2022/06/28 08:31:17;;;;;;;14.68;13.27;;;22.20;97.20;;;;;;1713716;28;20557;-70
2022/06/28 08:32:08;;;;;;;11.90;9.98;;;22.20;97.20;;;;;;1713654;28;20659;-70
2022/06/28 08:33:00;;;;;;;9.30;8.40;;;22.10;97.20;;;;;;1713717;28;20202;-69
2022/06/28 08:33:51;;;;;;;9.07;8.38;;;22.20;97.20;;;;;;1713500;28;20225;-69
2022/06/28 08:34:42;;;;;;;8.20;7.50;;;22.10;97.20;;;;;;1713735;28;20288;-70
2022/06/28 08:35:34;;;;;;;9.27;8.38;;;22.20;97.20;;;;;;1711513;28;20298;-69
2022/06/28 08:36:25;;;;;;;9.23;8.50;;;22.20;97.20;;;;;;1712614;28;20209;-69
2022/06/28 08:37:18;;;;;;;8.35;7.75;;;22.20;97.20;;;;;;1714200;28;20673;-69
2022/06/28 08:38:10;;;;;;;8.23;7.63;;;22.20;97.20;;;;;;1713416;28;20241;-69
2022/06/28 08:39:03;;;;;;;8.88;8.15;;;22.20;97.20;;;;;;1713199;28;20206;-69
2022/06/28 08:39:55;;;;;;;9.20;8.48;;;22.20;97.20;;;;;;1711389;28;20568;-69
2022/06/28 08:40:46;;;;;;;9.35;8.65;;;22.20;97.20;;;;;;1713778;28;20577;-69
2022/06/28 08:41:41;;;;;;;9.20;8.40;;;22.20;97.20;;;;;;1718039;28;20189;-69
2022/06/28 08:42:38;;;;;;;7.78;7.18;;;22.20;97.20;;;;;;1720743;28;20213;-69
2022/06/28 08:43:31;;;;;;;8.65;7.95;;;22.20;97.20;;;;;;1715005;28;20212;-70
2022/06/28 08:44:23;;;;;;;8.77;8.07;;;22.20;97.20;;;;;;1714152;28;20210;-69
2022/06/28 08:45:17;;;;;;;8.15;7.55;;;22.20;97.20;;;;;;1714036;28;20248;-69
2022/06/28 08:46:08;;;;;;;7.32;6.43;;;22.20;97.20;;;;;;1713984;28;20206;-69
2022/06/28 08:47:01;;;;;;;8.03;7.43;;;22.20;97.20;;;;;;1713845;28;20190;-69
2022/06/28 08:47:53;;;;;;;7.57;6.97;;;22.20;97.20;;;;;;1713865;28;20441;-69
2022/06/28 08:48:52;;;;;;;7.80;7.20;;;22.20;97.20;;;;;;1713425;28;20260;-69
2022/06/28 08:49:50;;;;;;;7.93;7.25;;;22.20;97.20;;;;;;1714118;28;20337;-69
2022/06/28 08:50:51;;;;;;;8.13;7.53;;;22.30;97.20;;;;;;1714135;28;20201;-69
2022/06/28 08:51:42;;;;;;;7.15;6.55;;;22.30;97.20;;;;;;1714039;28;20210;-69
2022/06/28 08:52:36;;;;;;;7.35;6.70;;;22.30;97.20;;;;;;1713979;28;20233;-69
2022/06/28 08:53:28;;;;;;;8.43;7.72;;;22.30;97.20;;;;;;1715123;28;20588;-69
2022/06/28 08:54:22;;;;;;;7.93;7.32;;;22.30;97.20;;;;;;1720568;28;20229;-69
2022/06/28 08:55:14;;;;;;;8.52;7.93;;;22.40;97.20;;;;;;1720609;28;20205;-69
2022/06/28 08:56:08;;;;;;;7.90;7.03;;;22.40;97.20;;;;;;1720611;28;20479;-69
2022/06/28 08:56:59;;;;;;;7.30;6.70;;;22.40;97.20;;;;;;1720424;28;20206;-69
2022/06/28 08:57:51;;;;;;;7.80;7.15;;;22.40;97.20;;;;;;1720572;28;20259;-69
2022/06/28 08:58:43;;;;;;;6.82;6.30;;;22.40;97.20;;;;;;1720477;28;20243;-69
2022/06/28 08:59:39;;;;;;;6.90;6.20;;;22.50;97.20;;;;;;1713520;28;20657;-70
2022/06/28 09:00:30;;;;;;;6.70;6.20;;;22.50;97.20;;;;;;1714025;28;20293;-69
2022/06/28 09:01:22;;;;;;;6.72;6.18;;;22.50;97.20;;;;;;1714045;28;20202;-69
2022/06/28 09:02:14;;;;;;;19.02;11.43;;;22.60;97.20;;;;;;1713958;28;20221;-69
2022/06/28 09:03:06;;;;;;;8.77;7.80;;;22.60;97.20;;;;;;1713891;28;20689;-69
2022/06/28 09:03:59;;;;;;;7.40;6.80;;;22.60;97.20;;;;;;1713892;28;20475;-70
2022/06/28 09:04:53;;;;;;;7.32;6.72;;;22.70;97.20;;;;;;1713898;28;20205;-69
2022/06/28 09:05:45;;;;;;;8.48;7.85;;;22.70;97.20;;;;;;1713919;28;20233;-69
2022/06/28 09:06:37;;;;;;;6.18;5.68;;;22.70;97.20;;;;;;1713796;28;20206;-69
2022/06/28 09:07:30;;;;;;;6.20;5.60;;;22.80;97.20;;;;;;1713909;28;20267;-70
2022/06/28 09:08:22;;;;;;;6.00;5.60;;;22.80;97.20;;;;;;1713859;28;20669;-69
2022/06/28 09:09:14;;;;;;;7.47;6.97;;;22.90;97.20;;;;;;1710082;28;20705;-69
2022/06/28 09:10:05;;;;;;;7.78;7.00;;;22.90;97.20;;;;;;1707365;29;20217;-69
2022/06/28 09:10:57;;;;;;;6.10;5.60;;;23.00;97.20;;;;;;1707241;29;20261;-69
2022/06/28 09:11:49;;;;;;;6.30;5.80;;;23.00;97.20;;;;;;1707298;29;20670;-69
2022/06/28 09:12:40;;;;;;;6.30;5.80;;;23.00;97.20;;;;;;1707228;29;20199;-69
2022/06/28 09:13:35;;;;;;;6.78;6.28;;;23.10;97.20;;;;;;1707235;29;20206;-69
2022/06/28 09:14:29;;;;;;;8.02;5.95;;;23.10;97.20;;;;;;1707096;29;20246;-69
2022/06/28 09:15:19;;;;;;;5.85;5.35;;;23.20;97.20;;;;;;1707049;29;20253;-69
2022/06/28 09:16:13;;;;;;;6.77;5.83;;;23.20;97.20;;;;;;1707151;29;20257;-69
2022/06/28 09:17:22;;;;;;;5.53;5.13;;;23.20;97.20;;;;;;1706987;29;20206;-69
2022/06/28 09:18:14;;;;;;;5.35;4.95;;;23.20;97.20;;;;;;1707181;29;20593;-69
2022/06/28 09:19:06;;;;;;;6.28;5.78;;;23.20;97.20;;;;;;1709028;28;20302;-69
2022/06/28 09:19:59;;;;;;;5.97;5.57;;;23.20;97.20;;;;;;1713900;28;20208;-69
2022/06/28 09:20:56;;;;;;;5.60;5.20;;;23.20;97.20;;;;;;1713846;28;20631;-69
2022/06/28 09:21:47;;;;;;;5.55;5.15;;;23.20;97.20;;;;;;1713838;28;20210;-69
2022/06/28 09:22:40;;;;;;;5.17;4.67;;;23.20;97.20;;;;;;1713854;28;20301;-69
2022/06/28 09:23:35;;;;;;;6.28;5.78;;;23.20;97.20;;;;;;1713778;28;20460;-69
2022/06/28 09:24:27;;;;;;;6.43;5.78;;;23.20;97.20;;;;;;1713876;28;20241;-69
2022/06/28 09:25:26;;;;;;;5.93;5.32;;;23.20;97.20;;;;;;1713688;28;20197;-69
2022/06/28 09:26:21;;;;;;;5.45;5.05;;;23.20;97.20;;;;;;1713850;28;20210;-69
2022/06/28 09:27:12;;;;;;;7.00;6.50;;;23.20;97.20;;;;;;1713667;28;20620;-69
2022/06/28 09:28:04;;;;;;;6.73;6.20;;;23.20;97.20;;;;;;1713785;28;20611;-69
2022/06/28 09:28:55;;;;;;;6.55;5.95;;;23.20;97.20;;;;;;1713007;28;20340;-69
2022/06/28 09:29:47;;;;;;;6.03;4.83;;;23.20;97.20;;;;;;1707256;29;20257;-69
2022/06/28 09:30:38;;;;;;;5.82;5.25;;;23.20;97.20;;;;;;1720199;28;20742;-69
2022/06/28 09:31:31;;;;;;;5.03;4.63;;;23.20;97.20;;;;;;1720528;28;20619;-69
2022/06/28 09:32:26;;;;;;;5.90;5.40;;;23.20;97.20;;;;;;1720468;28;20220;-69
2022/06/28 09:33:26;;;;;;;6.47;5.90;;;23.30;97.20;;;;;;1720549;28;20201;-69